createdAt,value
2018-09-09T00:01:43.501Z,74.40
2018-09-09T00:04:11.760Z,74.70
2018-09-09T00:06:40.022Z,74.70
2018-09-09T00:10:10.872Z,74.80
2018-09-09T00:12:39.165Z,74.90
2018-09-09T00:15:07.427Z,74.90
2018-09-09T00:17:35.667Z,75.00
2018-09-09T00:20:04.039Z,75.10
2018-09-09T00:22:32.278Z,75.20
2018-09-09T00:25:00.543Z,75.40
2018-09-09T00:27:28.786Z,75.30
2018-09-09T00:29:57.056Z,75.30
2018-09-09T00:32:25.310Z,75.60
2018-09-09T00:34:53.596Z,75.90
2018-09-09T00:37:21.865Z,75.80
2018-09-09T00:39:50.137Z,75.70
2018-09-09T00:42:18.431Z,75.60
2018-09-09T00:44:46.683Z,75.70
2018-09-09T00:47:14.951Z,75.80
2018-09-09T00:49:48.607Z,75.80
2018-09-09T00:52:22.332Z,76.00
2018-09-09T00:54:50.619Z,77.00
2018-09-09T00:57:18.848Z,76.30
2018-09-09T00:59:47.112Z,76.60
2018-09-09T01:02:15.359Z,76.70
2018-09-09T01:04:43.783Z,76.80
2018-09-09T01:07:12.031Z,77.10
2018-09-09T01:09:40.305Z,77.10
2018-09-09T01:12:08.579Z,77.20
2018-09-09T01:14:36.856Z,77.30
2018-09-09T01:17:05.144Z,77.40
2018-09-09T01:19:33.421Z,77.40
2018-09-09T01:22:01.706Z,77.50
2018-09-09T01:24:29.966Z,77.50
2018-09-09T01:26:58.224Z,77.50
2018-09-09T01:29:26.496Z,77.50
2018-09-09T01:31:54.774Z,77.50
2018-09-09T01:34:23.090Z,77.50
2018-09-09T01:36:51.361Z,77.30
2018-09-09T01:39:19.631Z,77.40
2018-09-09T01:41:47.934Z,77.20
2018-09-09T01:44:16.203Z,77.10
2018-09-09T01:46:44.458Z,77.10
2018-09-09T01:49:12.710Z,77.30
2018-09-09T01:51:40.992Z,77.60
2018-09-09T01:54:09.246Z,77.90
2018-09-09T01:56:37.501Z,78.10
2018-09-09T01:59:05.784Z,78.50
2018-09-09T02:01:34.029Z,78.90
2018-09-09T02:04:02.462Z,78.90
2018-09-09T02:06:30.713Z,79.20
2018-09-09T02:08:58.971Z,79.30
2018-09-09T02:11:27.222Z,79.30
2018-09-09T02:13:55.515Z,79.10
2018-09-09T02:16:23.792Z,78.90
2018-09-09T02:18:52.068Z,79.10
2018-09-09T02:21:20.330Z,79.20
2018-09-09T02:23:48.595Z,79.20
2018-09-09T02:26:16.867Z,79.20
2018-09-09T02:28:45.099Z,79.30
2018-09-09T02:31:13.368Z,79.30
2018-09-09T02:33:41.768Z,79.40
2018-09-09T02:36:10.036Z,79.60
2018-09-09T02:38:38.264Z,79.80
2018-09-09T02:41:06.587Z,80.00
2018-09-09T02:43:34.852Z,80.20
2018-09-09T02:46:03.131Z,80.20
2018-09-09T02:48:31.427Z,80.10
2018-09-09T02:50:59.704Z,80.00
2018-09-09T02:53:27.956Z,80.20
2018-09-09T02:55:56.241Z,80.20
2018-09-09T02:58:24.471Z,80.20
2018-09-09T03:00:52.767Z,80.40
2018-09-09T03:03:21.096Z,80.50
2018-09-09T03:05:49.335Z,80.70
2018-09-09T03:08:17.606Z,80.90
2018-09-09T03:10:49.984Z,81.10
2018-09-09T03:13:19.025Z,81.30
2018-09-09T03:15:47.280Z,81.40
2018-09-09T03:18:15.552Z,81.30
2018-09-09T03:20:43.786Z,81.30
2018-09-09T03:23:12.075Z,81.30
2018-09-09T03:25:40.314Z,81.50
2018-09-09T03:28:08.572Z,81.60
2018-09-09T03:30:36.859Z,81.80
2018-09-09T03:33:05.203Z,81.90
2018-09-09T03:35:33.468Z,82.10
2018-09-09T03:38:01.743Z,82.20
2018-09-09T03:40:30.004Z,82.40
2018-09-09T03:42:58.503Z,82.40
2018-09-09T03:45:26.756Z,82.70
2018-09-09T03:47:55.031Z,82.80
2018-09-09T03:50:23.295Z,82.70
2018-09-09T03:52:51.563Z,83.00
2018-09-09T03:55:20.161Z,83.40
2018-09-09T03:57:48.559Z,83.70
2018-09-09T04:00:16.760Z,83.90
2018-09-09T04:02:44.974Z,83.90
2018-09-09T04:05:13.211Z,84.00
2018-09-09T04:07:41.407Z,84.10
2018-09-09T04:10:09.965Z,84.10
2018-09-09T04:12:38.184Z,84.10
2018-09-09T04:15:06.668Z,84.00
2018-09-09T04:17:34.886Z,84.10
2018-09-09T04:20:03.133Z,84.20
2018-09-09T04:22:31.367Z,84.20
2018-09-09T04:24:59.719Z,84.30
2018-09-09T04:27:27.907Z,84.30
2018-09-09T04:29:56.094Z,84.40
2018-09-09T04:32:24.336Z,84.50
2018-09-09T04:34:52.567Z,84.50
2018-09-09T04:37:20.763Z,84.70
2018-09-09T04:39:48.997Z,85.00
2018-09-09T04:42:17.195Z,85.10
2018-09-09T04:44:45.411Z,85.10
2018-09-09T04:47:13.628Z,85.20
2018-09-09T04:49:41.851Z,85.30
2018-09-09T04:52:10.066Z,85.40
2018-09-09T04:54:38.439Z,85.30
2018-09-09T04:57:06.726Z,85.50
2018-09-09T04:59:34.936Z,85.70
2018-09-09T05:02:03.150Z,85.80
2018-09-09T05:04:31.451Z,85.90
2018-09-09T05:06:59.671Z,86.00
2018-09-09T05:09:27.875Z,86.20
2018-09-09T05:11:56.134Z,86.30
2018-09-09T05:14:24.332Z,86.30
2018-09-09T05:16:53.399Z,86.20
2018-09-09T05:19:21.669Z,85.60
2018-09-09T05:21:49.871Z,86.40
2018-09-09T05:24:18.188Z,86.20
2018-09-09T05:26:46.398Z,86.20
2018-09-09T05:29:14.615Z,86.20
2018-09-09T05:31:42.831Z,86.40
2018-09-09T05:34:11.054Z,86.40
2018-09-09T05:36:39.259Z,86.40
2018-09-09T05:39:09.856Z,86.40
2018-09-09T05:41:38.117Z,86.30
2018-09-09T05:44:06.387Z,86.20
2018-09-09T05:46:34.659Z,86.10
2018-09-09T05:49:02.982Z,86.10
2018-09-09T05:51:31.182Z,86.20
2018-09-09T05:53:59.599Z,86.20
2018-09-09T05:56:27.919Z,86.10
2018-09-09T05:58:56.157Z,86.20
2018-09-09T06:01:24.635Z,86.20
2018-09-09T06:03:52.871Z,86.10
2018-09-09T06:06:21.061Z,86.20
2018-09-09T06:08:49.266Z,86.30
2018-09-09T06:11:17.482Z,86.50
2018-09-09T06:13:45.746Z,86.40
2018-09-09T06:16:13.943Z,86.30
2018-09-09T06:18:42.196Z,86.40
2018-09-09T06:21:10.423Z,86.50
2018-09-09T06:23:38.667Z,87.00
2018-09-09T06:26:06.898Z,87.40
2018-09-09T06:28:35.091Z,87.60
2018-09-09T06:31:03.355Z,87.70
2018-09-09T06:33:31.551Z,87.80
2018-09-09T06:35:59.786Z,87.80
2018-09-09T06:38:28.059Z,87.60
2018-09-09T06:40:56.295Z,87.60
2018-09-09T06:43:24.530Z,87.30
2018-09-09T06:45:52.768Z,88.00
2018-09-09T06:48:20.955Z,87.00
2018-09-09T06:50:49.179Z,86.80
2018-09-09T06:53:17.382Z,86.70
2018-09-09T06:55:45.578Z,86.00
2018-09-09T06:58:13.820Z,85.70
2018-09-09T07:00:42.039Z,85.30
2018-09-09T07:03:10.287Z,85.70
2018-09-09T07:05:38.615Z,85.20
2018-09-09T07:08:06.840Z,85.30
2018-09-09T07:10:35.091Z,85.00
2018-09-09T07:13:03.461Z,84.40
2018-09-09T07:15:32.191Z,83.90
2018-09-09T07:18:00.746Z,83.60
2018-09-09T07:20:28.971Z,83.50
2018-09-09T07:22:57.191Z,82.80
2018-09-09T07:25:25.433Z,82.30
2018-09-09T07:27:53.619Z,81.40
2018-09-09T07:30:21.859Z,81.40
2018-09-09T07:32:50.077Z,80.90
2018-09-09T07:35:18.327Z,80.70
2018-09-09T07:37:46.683Z,80.80
2018-09-09T07:40:14.903Z,80.30
2018-09-09T07:42:43.163Z,80.20
2018-09-09T07:45:12.097Z,79.60
2018-09-09T07:47:40.332Z,78.90
2018-09-09T07:50:09.322Z,78.60
2018-09-09T07:52:37.508Z,78.90
2018-09-09T07:55:05.759Z,78.70
2018-09-09T07:57:33.967Z,78.60
2018-09-09T08:00:02.211Z,78.00
2018-09-09T08:02:30.567Z,77.60
2018-09-09T08:04:58.840Z,77.80
2018-09-09T08:07:27.147Z,78.20
2018-09-09T08:09:56.743Z,78.20
2018-09-09T08:12:25.296Z,78.30
2018-09-09T08:14:53.729Z,78.40
2018-09-09T08:17:22.004Z,78.50
2018-09-09T08:19:50.318Z,78.60
2018-09-09T08:22:18.551Z,78.70
2018-09-09T08:24:48.223Z,78.40
2018-09-09T08:27:16.527Z,77.80
2018-09-09T08:29:44.792Z,77.50
2018-09-09T08:32:13.587Z,76.50
2018-09-09T08:34:41.908Z,75.80
2018-09-09T08:37:10.191Z,75.10
2018-09-09T08:39:38.486Z,74.70
2018-09-09T08:42:06.706Z,75.00
2018-09-09T08:44:35.111Z,75.50
2018-09-09T08:47:03.430Z,75.40
2018-09-09T08:49:31.838Z,74.30
2018-09-09T08:52:00.378Z,74.70
2018-09-09T08:54:28.554Z,75.10
2018-09-09T08:56:56.775Z,75.40
2018-09-09T08:59:25.063Z,75.20
2018-09-09T09:01:53.315Z,75.10
2018-09-09T09:04:21.559Z,74.30
2018-09-09T09:06:50.212Z,74.20
2018-09-09T09:09:18.458Z,74.10
2018-09-09T09:11:46.676Z,73.90
2018-09-09T09:14:15.215Z,73.60
2018-09-09T09:16:43.415Z,73.10
2018-09-09T09:19:11.835Z,72.20
2018-09-09T09:21:40.371Z,71.70
2018-09-09T09:24:08.606Z,71.80
2018-09-09T09:26:36.908Z,72.50
2018-09-09T09:29:05.515Z,71.70
2018-09-09T09:31:33.735Z,70.80
2018-09-09T09:34:01.955Z,71.10
2018-09-09T09:36:30.170Z,70.90
2018-09-09T09:38:58.354Z,69.30
2018-09-09T09:41:26.574Z,69.40
2018-09-09T09:43:55.260Z,69.10
2018-09-09T09:46:24.119Z,68.40
2018-09-09T09:48:52.278Z,68.20
2018-09-09T09:51:20.469Z,67.50
2018-09-09T09:53:48.678Z,67.80
2018-09-09T09:56:16.850Z,67.70
2018-09-09T09:58:45.056Z,66.90
2018-09-09T10:01:13.259Z,67.20
2018-09-09T10:03:41.485Z,66.40
2018-09-09T10:06:09.692Z,66.30
2018-09-09T10:08:37.890Z,65.50
2018-09-09T10:11:06.704Z,65.90
2018-09-09T10:13:35.106Z,66.20
2018-09-09T10:16:03.306Z,66.00
2018-09-09T10:18:32.436Z,66.40
2018-09-09T10:21:01.645Z,66.90
2018-09-09T10:23:29.920Z,67.40
2018-09-09T10:25:58.130Z,67.20
2018-09-09T10:28:32.849Z,67.10
2018-09-09T10:31:01.038Z,67.30
2018-09-09T10:33:29.257Z,68.10
2018-09-09T10:35:57.464Z,67.00
2018-09-09T10:38:25.689Z,66.50
2018-09-09T10:40:53.928Z,67.40
2018-09-09T10:43:22.214Z,67.30
2018-09-09T10:45:50.468Z,65.30
2018-09-09T10:48:18.707Z,64.90
2018-09-09T10:53:38.495Z,64.80
2018-09-09T10:56:06.687Z,64.60
2018-09-09T10:58:34.914Z,63.90
2018-09-09T11:01:03.127Z,63.20
2018-09-09T11:03:31.402Z,62.20
2018-09-09T11:05:59.646Z,61.50
2018-09-09T11:08:27.840Z,61.20
2018-09-09T11:10:56.068Z,60.50
2018-09-09T11:13:24.242Z,59.00
2018-09-09T11:15:52.526Z,58.30
2018-09-09T11:18:20.755Z,58.70
2018-09-09T11:20:48.997Z,57.80
2018-09-09T11:23:17.390Z,58.00
2018-09-09T11:25:45.588Z,57.90
2018-09-09T11:28:13.914Z,58.20
2018-09-09T11:30:42.380Z,57.90
2018-09-09T11:33:10.604Z,57.20
2018-09-09T11:35:38.820Z,57.20
2018-09-09T11:38:07.048Z,57.40
2018-09-09T11:40:35.279Z,56.60
2018-09-09T11:43:03.486Z,57.20
2018-09-09T11:45:31.921Z,57.00
2018-09-09T11:48:00.162Z,56.60
2018-09-09T11:53:02.934Z,56.30
2018-09-09T11:55:31.129Z,55.70
2018-09-09T11:58:00.087Z,55.50
2018-09-09T12:00:28.300Z,55.10
2018-09-09T12:02:56.531Z,55.10
2018-09-09T12:05:24.727Z,54.50
2018-09-09T12:07:52.944Z,54.30
2018-09-09T12:10:21.170Z,54.10
2018-09-09T12:12:49.371Z,54.20
2018-09-09T12:15:17.808Z,54.10
2018-09-09T12:17:46.076Z,53.60
2018-09-09T12:20:14.297Z,53.60
2018-09-09T12:22:42.499Z,53.60
2018-09-09T12:25:10.690Z,54.00
2018-09-09T12:27:38.975Z,54.10
2018-09-09T12:30:07.282Z,54.60
2018-09-09T12:32:35.529Z,54.30
2018-09-09T12:35:03.771Z,54.10
2018-09-09T12:37:32.004Z,52.70
2018-09-09T12:40:00.210Z,52.20
2018-09-09T12:42:28.431Z,51.50
2018-09-09T12:45:01.977Z,51.50
2018-09-09T12:47:35.526Z,51.30
2018-09-09T12:50:03.754Z,51.50
2018-09-09T12:52:31.968Z,51.70
2018-09-09T12:55:00.287Z,52.50
2018-09-09T12:57:28.518Z,52.60
2018-09-09T12:59:56.885Z,51.90
2018-09-09T13:02:25.262Z,51.70
2018-09-09T13:04:53.445Z,51.50
2018-09-09T13:07:21.673Z,50.80
2018-09-09T13:09:49.885Z,50.90
2018-09-09T13:12:18.130Z,51.00
2018-09-09T13:14:46.434Z,51.00
2018-09-09T13:17:15.347Z,50.70
2018-09-09T13:19:43.562Z,50.20
2018-09-09T13:22:11.909Z,49.60
2018-09-09T13:24:40.147Z,49.30
2018-09-09T13:27:08.364Z,49.00
2018-09-09T13:29:36.552Z,48.50
2018-09-09T13:32:04.755Z,48.00
2018-09-09T13:34:32.975Z,47.90
2018-09-09T13:37:01.170Z,47.80
2018-09-09T13:39:29.411Z,47.50
2018-09-09T13:41:57.598Z,47.60
2018-09-09T13:44:25.997Z,47.50
2018-09-09T13:46:54.187Z,46.00
2018-09-09T13:49:22.443Z,46.30
2018-09-09T13:51:50.635Z,46.00
2018-09-09T13:54:18.843Z,44.50
2018-09-09T13:56:47.164Z,43.00
2018-09-09T13:59:15.351Z,41.60
2018-09-09T14:01:43.686Z,37.50
2018-09-09T14:04:12.022Z,35.20
2018-09-09T14:06:40.227Z,33.80
2018-09-09T14:09:09.410Z,34.00
2018-09-09T14:11:37.947Z,33.80
2018-09-09T14:14:06.367Z,34.90
2018-09-09T14:16:34.558Z,33.70
2018-09-09T14:19:02.835Z,33.60
2018-09-09T14:21:31.220Z,34.10
2018-09-09T14:23:59.424Z,35.30
2018-09-09T14:26:28.022Z,35.00
2018-09-09T14:28:56.289Z,35.10
2018-09-09T14:31:24.490Z,33.40
2018-09-09T14:33:52.862Z,30.00
2018-09-09T14:36:21.085Z,28.30
2018-09-09T14:38:49.468Z,27.30
2018-09-09T14:41:17.674Z,26.40
2018-09-09T14:43:45.984Z,26.20
2018-09-09T14:46:14.179Z,25.90
2018-09-09T14:48:42.496Z,25.20
2018-09-09T14:51:10.765Z,25.30
2018-09-09T14:53:38.992Z,24.70
2018-09-09T14:56:07.225Z,24.00
2018-09-09T14:58:35.427Z,23.30
2018-09-09T15:01:03.668Z,23.00
2018-09-09T15:03:31.939Z,23.80
2018-09-09T15:06:00.310Z,25.60
2018-09-09T15:08:28.486Z,26.70
2018-09-09T15:10:56.731Z,27.70
2018-09-09T15:13:25.116Z,28.80
2018-09-09T15:15:53.306Z,29.40
2018-09-09T15:18:21.716Z,29.40
2018-09-09T15:20:49.908Z,29.20
2018-09-09T15:23:18.113Z,29.60
2018-09-09T15:25:46.311Z,29.30
2018-09-09T15:28:14.546Z,30.20
2018-09-09T15:30:42.751Z,31.00
2018-09-09T15:33:10.967Z,31.40
2018-09-09T15:35:39.181Z,32.10
2018-09-09T15:38:07.425Z,32.80
2018-09-09T15:40:35.639Z,33.20
2018-09-09T15:43:04.043Z,33.70
2018-09-09T15:45:32.316Z,34.40
2018-09-09T15:48:00.519Z,34.90
2018-09-09T15:50:28.718Z,35.00
2018-09-09T15:52:56.943Z,34.20
2018-09-09T15:55:25.191Z,32.70
2018-09-09T15:57:53.477Z,30.80
2018-09-09T16:00:21.738Z,28.50
2018-09-09T16:02:49.935Z,28.70
2018-09-09T16:05:18.300Z,29.20
2018-09-09T16:07:46.535Z,30.10
2018-09-09T16:10:14.849Z,30.60
2018-09-09T16:12:43.123Z,30.00
2018-09-09T16:15:11.904Z,30.00
2018-09-09T16:17:40.743Z,30.70
2018-09-09T16:20:08.967Z,31.80
2018-09-09T16:22:37.198Z,33.10
2018-09-09T16:25:05.430Z,34.40
2018-09-09T16:27:34.684Z,35.30
2018-09-09T16:30:04.981Z,37.00
2018-09-09T16:32:33.190Z,36.80
2018-09-09T16:35:01.673Z,37.40
2018-09-09T16:37:29.923Z,37.80
2018-09-09T16:39:58.139Z,38.10
2018-09-09T16:42:26.380Z,37.90
2018-09-09T16:44:55.526Z,37.60
2018-09-09T16:47:23.985Z,36.60
2018-09-09T16:49:52.691Z,36.60
2018-09-09T16:52:21.631Z,37.00
2018-09-09T16:54:50.943Z,38.00
2018-09-09T16:57:19.412Z,38.30
2018-09-09T16:59:47.614Z,38.10
2018-09-09T17:02:16.652Z,36.50
2018-09-09T17:04:44.837Z,34.80
2018-09-09T17:07:13.859Z,33.70
2018-09-09T17:09:42.052Z,32.70
2018-09-09T17:12:10.339Z,32.00
2018-09-09T17:14:38.530Z,31.20
2018-09-09T17:17:07.522Z,30.50
2018-09-09T17:19:36.447Z,30.50
2018-09-09T17:22:04.654Z,30.50
2018-09-09T17:24:33.730Z,31.00
2018-09-09T17:27:06.524Z,32.10
2018-09-09T17:29:35.591Z,33.40
2018-09-09T17:32:04.538Z,34.90
2018-09-09T17:34:33.548Z,36.30
2018-09-09T17:37:02.679Z,37.60
2018-09-09T17:39:31.838Z,38.20
2018-09-09T17:42:01.245Z,38.90
2018-09-09T17:44:29.456Z,39.80
2018-09-09T17:46:58.546Z,40.50
2018-09-09T17:49:26.767Z,41.10
2018-09-09T17:51:54.967Z,41.60
2018-09-09T17:54:23.191Z,42.10
2018-09-09T17:56:52.253Z,42.50
2018-09-09T17:59:21.414Z,43.00
2018-09-09T18:01:49.855Z,43.60
2018-09-09T18:04:18.182Z,44.00
2018-09-09T18:06:46.360Z,44.30
2018-09-09T18:09:14.678Z,44.70
2018-09-09T18:11:43.040Z,45.90
2018-09-09T18:14:11.162Z,45.70
2018-09-09T18:16:39.392Z,46.30
2018-09-09T18:19:07.587Z,46.80
2018-09-09T18:21:35.824Z,47.30
2018-09-09T18:24:04.165Z,47.50
2018-09-09T18:26:32.379Z,47.80
2018-09-09T18:29:00.575Z,48.30
2018-09-09T18:31:28.803Z,48.60
2018-09-09T18:33:56.990Z,48.90
2018-09-09T18:36:25.277Z,49.10
2018-09-09T18:38:53.421Z,49.30
2018-09-09T18:41:21.596Z,49.40
2018-09-09T18:43:49.852Z,49.60
2018-09-09T18:46:18.063Z,50.00
2018-09-09T18:48:46.273Z,50.40
2018-09-09T18:51:14.491Z,50.60
2018-09-09T18:53:42.862Z,50.90
2018-09-09T18:56:11.067Z,51.30
2018-09-09T18:58:39.266Z,51.40
2018-09-09T19:01:07.711Z,51.60
2018-09-09T19:03:36.604Z,51.70
2018-09-09T19:06:05.624Z,51.90
2018-09-09T19:08:34.668Z,52.10
2018-09-09T19:11:03.781Z,52.40
2018-09-09T19:13:32.676Z,52.30
2018-09-09T19:16:01.968Z,52.40
2018-09-09T19:18:30.910Z,52.30
2018-09-09T19:20:59.074Z,52.20
2018-09-09T19:23:27.606Z,52.90
2018-09-09T19:25:56.462Z,52.10
2018-09-09T19:28:25.519Z,52.10
2018-09-09T19:30:53.692Z,52.00
2018-09-09T19:33:22.330Z,52.00
2018-09-09T19:35:50.527Z,51.80
2018-09-09T19:38:18.755Z,51.70
2018-09-09T19:40:47.654Z,51.70
2018-09-09T19:43:16.286Z,51.60
2018-09-09T19:45:45.133Z,51.70
2018-09-09T19:48:14.167Z,51.90
2018-09-09T19:50:42.371Z,51.80
2018-09-09T19:53:10.577Z,51.80
2018-09-09T19:55:39.619Z,51.80
2018-09-09T19:58:08.593Z,51.80
2018-09-09T20:00:43.870Z,51.80
2018-09-09T20:03:12.947Z,52.10
2018-09-09T20:05:41.205Z,52.30
2018-09-09T20:08:10.206Z,52.30
2018-09-09T20:10:38.415Z,52.50
2018-09-09T20:13:06.680Z,52.60
2018-09-09T20:15:35.076Z,52.80
2018-09-09T20:18:03.981Z,53.00
2018-09-09T20:20:32.175Z,53.10
2018-09-09T20:23:00.410Z,53.00
2018-09-09T20:25:29.443Z,53.10
2018-09-09T20:27:58.240Z,53.20
2018-09-09T20:30:26.438Z,53.20
2018-09-09T20:32:54.651Z,53.20
2018-09-09T20:35:23.541Z,53.40
2018-09-09T20:37:52.463Z,53.50
2018-09-09T20:40:21.523Z,53.40
2018-09-09T20:42:49.773Z,53.70
2018-09-09T20:45:18.145Z,53.80
2018-09-09T20:47:46.353Z,53.70
2018-09-09T20:50:14.535Z,53.60
2018-09-09T20:52:42.715Z,53.60
2018-09-09T20:55:10.930Z,53.50
2018-09-09T20:57:39.134Z,53.70
2018-09-09T21:00:07.362Z,53.70
2018-09-09T21:02:35.578Z,53.50
2018-09-09T21:05:03.811Z,53.30
2018-09-09T21:07:32.071Z,53.50
2018-09-09T21:10:00.331Z,53.60
2018-09-09T21:12:28.628Z,53.60
2018-09-09T21:14:56.891Z,53.60
2018-09-09T21:17:25.098Z,53.70
2018-09-09T21:19:53.296Z,53.70
2018-09-09T21:22:21.532Z,53.60
2018-09-09T21:24:49.723Z,53.50
2018-09-09T21:27:17.940Z,53.60
2018-09-09T21:29:46.172Z,53.70
2018-09-09T21:32:14.370Z,53.50
2018-09-09T21:34:42.577Z,53.50
2018-09-09T21:37:10.787Z,53.60
2018-09-09T21:39:38.975Z,53.50
2018-09-09T21:42:07.204Z,53.50
2018-09-09T21:44:35.578Z,53.40
2018-09-09T21:47:03.775Z,53.40
2018-09-09T21:49:31.983Z,53.60
2018-09-09T21:52:00.195Z,54.00
2018-09-09T21:54:28.428Z,54.00
2018-09-09T21:56:56.623Z,53.90
2018-09-09T21:59:24.826Z,54.00
2018-09-09T22:01:58.382Z,53.90
2018-09-09T22:04:26.588Z,54.10
2018-09-09T22:06:54.775Z,54.20
2018-09-09T22:09:22.974Z,54.20
2018-09-09T22:11:51.189Z,54.30
2018-09-09T22:14:19.427Z,54.30
2018-09-09T22:16:47.643Z,54.40
2018-09-09T22:19:15.843Z,54.50
2018-09-09T22:21:47.415Z,54.80
2018-09-09T22:24:16.288Z,55.00
2018-09-09T22:26:44.772Z,55.30
2018-09-09T22:29:13.021Z,55.20
2018-09-09T22:31:41.179Z,55.20
2018-09-09T22:34:09.398Z,55.30
2018-09-09T22:36:37.642Z,55.30
2018-09-09T22:39:07.523Z,55.30
2018-09-09T22:41:35.756Z,55.40
2018-09-09T22:44:04.104Z,55.60
2018-09-09T22:46:32.278Z,55.50
2018-09-09T22:49:00.495Z,55.40
2018-09-09T22:51:28.691Z,55.40
2018-09-09T22:53:56.899Z,55.40
2018-09-09T22:56:25.119Z,55.70
2018-09-09T22:58:53.306Z,56.10
2018-09-09T23:01:21.531Z,56.60
2018-09-09T23:03:49.722Z,56.90
2018-09-09T23:06:17.956Z,57.10
2018-09-09T23:08:46.173Z,57.40
2018-09-09T23:11:14.369Z,57.50
2018-09-09T23:13:42.775Z,57.50
2018-09-09T23:16:10.987Z,57.60
2018-09-09T23:18:39.203Z,57.70
2018-09-09T23:21:07.398Z,57.90
2018-09-09T23:23:35.630Z,58.00
2018-09-09T23:26:03.819Z,58.00
2018-09-09T23:28:31.994Z,58.30
2018-09-09T23:31:00.214Z,58.50
2018-09-09T23:33:28.406Z,58.70
2018-09-09T23:35:56.606Z,58.90
2018-09-09T23:38:24.787Z,59.00
2018-09-09T23:40:53.002Z,59.10
2018-09-09T23:43:21.193Z,59.30
2018-09-09T23:45:49.415Z,59.40
2018-09-09T23:48:17.619Z,59.60
2018-09-09T23:50:45.799Z,59.80
2018-09-09T23:53:14.007Z,60.30
2018-09-09T23:55:42.223Z,60.20
2018-09-09T23:58:10.448Z,60.20
